createdAt,value
2019-05-13T00:00:15.000Z,1.80
2019-05-13T00:02:43.934Z,2.47
2019-05-13T00:05:14.689Z,1.40
2019-05-13T00:07:43.904Z,1.33
2019-05-13T00:10:14.626Z,1.70
2019-05-13T00:12:44.741Z,1.53
2019-05-13T00:15:14.269Z,1.90
2019-05-13T00:17:44.717Z,1.50
2019-05-13T00:20:14.143Z,1.50
2019-05-13T00:22:44.686Z,1.30
2019-05-13T00:25:14.590Z,1.40
2019-05-13T00:27:44.526Z,1.37
2019-05-13T00:30:14.592Z,1.50
2019-05-13T00:32:44.557Z,1.60
2019-05-13T00:35:14.113Z,1.30
2019-05-13T00:37:44.321Z,1.70
2019-05-13T00:40:14.362Z,1.40
2019-05-13T00:42:44.083Z,1.63
2019-05-13T00:45:14.520Z,1.70
2019-05-13T00:47:43.893Z,1.47
2019-05-13T00:50:14.241Z,1.40
2019-05-13T00:52:44.893Z,1.50
2019-05-13T00:55:14.777Z,1.37
2019-05-13T00:57:43.791Z,1.43
2019-05-13T01:00:14.124Z,1.10
2019-05-13T01:02:44.662Z,1.40
2019-05-13T01:05:14.608Z,1.37
2019-05-13T01:07:44.394Z,1.30
2019-05-13T01:10:13.446Z,1.30
2019-05-13T01:12:44.080Z,1.23
2019-05-13T01:15:13.528Z,1.57
2019-05-13T01:17:44.820Z,1.50
2019-05-13T01:20:14.435Z,1.70
2019-05-13T01:22:44.159Z,1.40
2019-05-13T01:25:14.611Z,1.53
2019-05-13T01:27:44.347Z,1.73
2019-05-13T01:30:13.712Z,1.83
2019-05-13T01:32:44.617Z,1.60
2019-05-13T01:35:14.748Z,1.50
2019-05-13T01:37:45.933Z,1.80
2019-05-13T01:40:13.685Z,1.30
2019-05-13T01:42:44.336Z,1.40
2019-05-13T01:45:13.690Z,1.33
2019-05-13T01:47:43.982Z,1.50
2019-05-13T01:50:14.349Z,1.30
2019-05-13T01:52:44.574Z,1.37
2019-05-13T01:55:14.621Z,1.40
2019-05-13T01:57:44.412Z,1.37
2019-05-13T02:00:14.195Z,1.30
2019-05-13T02:02:44.609Z,1.33
2019-05-13T02:05:13.982Z,1.30
2019-05-13T02:07:54.550Z,1.37
2019-05-13T02:10:15.740Z,1.60
2019-05-13T02:12:44.746Z,2.10
2019-05-13T02:15:14.709Z,2.10
2019-05-13T02:17:44.704Z,1.60
2019-05-13T02:20:14.823Z,1.67
2019-05-13T02:22:44.517Z,1.60
2019-05-13T02:25:13.926Z,1.53
2019-05-13T02:27:44.090Z,1.43
2019-05-13T02:30:16.270Z,1.60
2019-05-13T02:32:43.335Z,1.47
2019-05-13T02:35:13.871Z,2.13
2019-05-13T02:37:43.267Z,2.13
2019-05-13T02:40:13.581Z,1.47
2019-05-13T02:42:43.563Z,1.77
2019-05-13T02:45:13.249Z,1.37
2019-05-13T02:47:44.396Z,1.80
2019-05-13T02:50:13.078Z,1.57
2019-05-13T02:52:44.461Z,1.50
2019-05-13T02:55:12.726Z,1.43
2019-05-13T02:57:43.729Z,1.70
2019-05-13T03:00:13.224Z,1.53
2019-05-13T03:02:43.722Z,1.33
2019-05-13T03:05:13.776Z,1.70
2019-05-13T03:07:43.265Z,1.40
2019-05-13T03:10:13.551Z,1.40
2019-05-13T03:12:43.024Z,1.40
2019-05-13T03:15:13.554Z,1.60
2019-05-13T03:17:53.296Z,1.50
2019-05-13T03:20:22.914Z,1.80
2019-05-13T03:22:52.669Z,1.70
2019-05-13T03:25:22.607Z,1.20
2019-05-13T03:27:53.952Z,1.60
2019-05-13T03:30:25.144Z,1.33
2019-05-13T03:33:00.552Z,1.30
2019-05-13T03:35:26.506Z,1.50
2019-05-13T03:37:53.129Z,1.77
2019-05-13T03:40:23.115Z,1.60
2019-05-13T03:42:53.569Z,1.57
2019-05-13T03:45:25.442Z,1.40
2019-05-13T03:47:56.686Z,1.57
2019-05-13T03:50:25.135Z,1.43
2019-05-13T03:52:53.721Z,1.50
2019-05-13T03:55:23.238Z,1.90
2019-05-13T03:57:53.322Z,1.77
2019-05-13T04:00:23.675Z,1.30
2019-05-13T04:02:53.345Z,1.40
2019-05-13T04:05:23.230Z,1.40
2019-05-13T04:07:52.715Z,1.13
2019-05-13T04:10:23.014Z,1.20
2019-05-13T04:12:52.890Z,1.67
2019-05-13T04:15:23.496Z,1.53
2019-05-13T04:17:53.452Z,1.30
2019-05-13T04:20:23.397Z,1.57
2019-05-13T04:22:53.298Z,1.47
2019-05-13T04:25:23.139Z,1.40
2019-05-13T04:27:53.249Z,1.40
2019-05-13T04:30:22.964Z,1.83
2019-05-13T04:32:53.307Z,1.63
2019-05-13T04:35:24.451Z,1.70
2019-05-13T04:37:53.169Z,1.80
2019-05-13T04:40:23.177Z,1.50
2019-05-13T04:42:55.057Z,1.80
2019-05-13T04:45:24.285Z,1.70
2019-05-13T04:47:53.272Z,2.03
2019-05-13T04:50:22.816Z,1.57
2019-05-13T04:52:52.783Z,1.90
2019-05-13T04:55:23.122Z,1.53
2019-05-13T04:57:53.192Z,1.70
2019-05-13T05:01:07.535Z,1.67
2019-05-13T05:04:03.102Z,1.40
2019-05-13T05:06:45.507Z,1.30
2019-05-13T05:10:13.017Z,1.73
2019-05-13T05:12:51.931Z,1.30
2019-05-13T05:15:34.593Z,1.40
2019-05-13T05:18:32.506Z,1.77
2019-05-13T05:24:52.033Z,1.40
2019-05-13T05:28:02.237Z,1.40
2019-05-13T05:31:05.808Z,1.77
2019-05-13T05:34:11.452Z,1.40
2019-05-13T05:36:54.459Z,1.33
2019-05-13T05:39:28.724Z,1.63
2019-05-13T05:42:12.185Z,1.60
2019-05-13T05:44:46.133Z,2.00
2019-05-13T05:47:16.756Z,1.90
2019-05-13T05:49:46.316Z,1.40
2019-05-13T05:52:16.394Z,1.60
2019-05-13T05:54:47.890Z,1.67
2019-05-13T05:57:19.114Z,1.53
2019-05-13T05:59:48.364Z,1.50
2019-05-13T06:02:18.910Z,1.20
2019-05-13T06:04:48.060Z,2.07
2019-05-13T06:07:16.981Z,1.73
2019-05-13T06:09:45.389Z,1.67
2019-05-13T06:12:13.989Z,1.70
2019-05-13T06:14:42.826Z,1.83
2019-05-13T06:17:11.610Z,1.67
2019-05-13T06:19:41.897Z,1.80
2019-05-13T06:22:12.356Z,1.63
2019-05-13T06:24:42.043Z,1.80
2019-05-13T06:27:11.820Z,1.93
2019-05-13T06:29:42.299Z,2.00
2019-05-13T06:32:19.049Z,1.83
2019-05-13T06:34:41.566Z,1.53
2019-05-13T06:37:11.465Z,1.73
2019-05-13T06:39:42.000Z,1.50
2019-05-13T06:42:11.679Z,1.40
2019-05-13T06:44:42.099Z,1.60
2019-05-13T06:47:11.453Z,1.23
2019-05-13T06:49:42.613Z,1.60
2019-05-13T06:52:11.986Z,1.60
2019-05-13T06:54:41.867Z,1.70
2019-05-13T06:57:13.410Z,1.77
2019-05-13T06:59:42.000Z,1.70
2019-05-13T07:02:17.225Z,1.43
2019-05-13T07:04:45.708Z,1.50
2019-05-13T07:07:17.257Z,1.80
2019-05-13T07:09:44.356Z,2.00
2019-05-13T07:12:12.766Z,1.57
2019-05-13T07:14:41.452Z,1.40
2019-05-13T07:17:12.135Z,1.37
2019-05-13T07:19:41.527Z,1.97
2019-05-13T07:22:11.526Z,1.50
2019-05-13T07:24:41.574Z,1.50
2019-05-13T07:27:12.301Z,1.80
2019-05-13T07:29:42.397Z,1.40
2019-05-13T07:32:12.018Z,2.07
2019-05-13T07:34:43.779Z,2.00
2019-05-13T07:37:11.447Z,1.70
2019-05-13T07:40:03.035Z,1.50
2019-05-13T07:42:31.469Z,1.60
2019-05-13T07:45:01.519Z,1.40
2019-05-13T07:47:31.499Z,1.33
2019-05-13T07:50:03.150Z,1.50
2019-05-13T07:52:32.071Z,1.87
2019-05-13T07:55:01.644Z,1.53
2019-05-13T07:57:31.846Z,1.60
2019-05-13T08:00:02.048Z,1.43
2019-05-13T08:02:31.966Z,1.43
2019-05-13T08:05:02.357Z,1.60
2019-05-13T08:07:31.538Z,1.80
2019-05-13T08:10:02.939Z,1.40
2019-05-13T08:12:31.970Z,1.30
2019-05-13T08:15:03.191Z,1.90
2019-05-13T08:17:32.699Z,1.90
2019-05-13T08:20:02.907Z,1.57
2019-05-13T08:22:32.045Z,2.00
2019-05-13T08:25:03.054Z,1.87
2019-05-13T08:27:34.975Z,2.13
2019-05-13T08:30:01.803Z,1.90
2019-05-13T08:32:31.457Z,1.87
2019-05-13T08:35:03.216Z,2.00
2019-05-13T08:37:32.135Z,2.20
2019-05-13T08:40:01.561Z,2.40
2019-05-13T08:42:32.293Z,1.97
2019-05-13T08:45:01.859Z,1.77
2019-05-13T08:47:31.422Z,1.50
2019-05-13T08:50:03.882Z,1.83
2019-05-13T08:52:31.382Z,1.80
2019-05-13T08:55:01.455Z,1.97
2019-05-13T08:57:31.574Z,1.90
2019-05-13T09:00:07.268Z,1.70
2019-05-13T09:02:35.671Z,2.00
2019-05-13T09:05:06.920Z,2.03
2019-05-13T09:07:35.667Z,1.90
2019-05-13T09:10:06.137Z,1.73
2019-05-13T09:12:37.099Z,1.90
2019-05-13T09:15:07.554Z,2.13
2019-05-13T09:17:35.980Z,2.00
2019-05-13T09:20:06.642Z,2.07
2019-05-13T09:22:35.044Z,1.83
2019-05-13T09:25:06.362Z,2.00
2019-05-13T09:27:34.802Z,1.50
2019-05-13T09:30:06.860Z,1.57
2019-05-13T09:32:35.302Z,1.77
2019-05-13T09:35:05.201Z,1.73
2019-05-13T09:37:33.630Z,2.73
2019-05-13T09:40:05.025Z,2.00
2019-05-13T09:42:48.143Z,2.30
2019-05-13T09:45:04.637Z,2.20
2019-05-13T09:47:33.068Z,1.90
2019-05-13T09:50:01.480Z,2.20
2019-05-13T09:52:31.872Z,1.90
2019-05-13T09:55:02.866Z,2.33
2019-05-13T09:57:32.192Z,2.03
2019-05-13T10:00:01.790Z,2.10
2019-05-13T10:02:32.102Z,2.30
2019-05-13T10:05:02.280Z,1.70
2019-05-13T10:07:31.859Z,1.70
2019-05-13T10:10:01.629Z,1.80
2019-05-13T10:12:31.908Z,1.97
2019-05-13T10:15:02.048Z,1.87
2019-05-13T10:17:31.814Z,1.97
2019-05-13T10:20:00.554Z,2.10
2019-05-13T10:22:28.969Z,2.00
2019-05-13T10:24:57.506Z,2.10
2019-05-13T10:27:26.252Z,2.20
2019-05-13T10:29:54.998Z,2.30
2019-05-13T10:32:23.412Z,1.97
2019-05-13T10:34:53.492Z,1.80
2019-05-13T10:37:22.395Z,2.13
2019-05-13T10:39:51.847Z,2.10
2019-05-13T10:42:22.272Z,1.90
2019-05-13T10:44:52.339Z,1.97
2019-05-13T10:47:22.686Z,2.20
2019-05-13T10:49:52.366Z,2.37
2019-05-13T10:52:22.898Z,1.83
2019-05-13T10:54:52.712Z,1.90
2019-05-13T10:57:21.352Z,2.10
2019-05-13T10:59:52.480Z,1.93
2019-05-13T11:02:22.202Z,2.57
2019-05-13T11:04:52.535Z,2.30
2019-05-13T11:07:22.492Z,1.83
2019-05-13T11:09:52.765Z,2.10
2019-05-13T11:12:22.738Z,2.40
2019-05-13T11:14:54.107Z,2.13
2019-05-13T11:17:23.318Z,2.33
2019-05-13T11:19:51.785Z,2.30
2019-05-13T11:22:22.314Z,2.00
2019-05-13T11:24:51.815Z,2.17
2019-05-13T11:27:23.291Z,2.30
2019-05-13T11:29:52.335Z,2.40
2019-05-13T11:32:22.234Z,2.27
2019-05-13T11:34:53.108Z,2.22
2019-05-13T11:37:23.159Z,2.10
2019-05-13T11:39:53.803Z,2.10
2019-05-13T11:42:22.831Z,2.53
2019-05-13T11:44:52.833Z,2.60
2019-05-13T11:47:21.508Z,1.83
2019-05-13T11:49:52.240Z,1.90
2019-05-13T11:52:22.594Z,2.30
2019-05-13T11:54:53.174Z,2.70
2019-05-13T11:57:20.383Z,2.17
2019-05-13T11:59:49.067Z,2.30
2019-05-13T12:02:17.485Z,2.00
2019-05-13T12:04:45.941Z,2.03
2019-05-13T12:07:14.355Z,2.00
2019-05-13T12:09:42.752Z,2.30
2019-05-13T12:12:13.226Z,1.90
2019-05-13T12:15:04.036Z,2.20
2019-05-13T12:17:14.249Z,1.97
2019-05-13T12:19:41.989Z,2.00
2019-05-13T12:22:12.952Z,2.02
2019-05-13T12:24:42.288Z,2.00
2019-05-13T12:27:10.991Z,1.97
2019-05-13T12:29:42.998Z,2.00
2019-05-13T12:32:13.518Z,1.90
2019-05-13T12:34:45.349Z,2.00
2019-05-13T12:37:12.251Z,2.00
2019-05-13T12:39:43.906Z,2.10
2019-05-13T12:42:12.653Z,2.30
2019-05-13T12:44:59.836Z,2.10
2019-05-13T12:47:12.041Z,1.60
2019-05-13T12:49:43.960Z,2.43
2019-05-13T12:52:13.274Z,2.10
2019-05-13T12:54:43.923Z,2.07
2019-05-13T12:57:15.670Z,1.90
2019-05-13T12:59:43.591Z,2.30
2019-05-13T13:02:13.348Z,2.10
2019-05-13T13:07:13.377Z,1.80
2019-05-13T13:09:43.192Z,1.57
2019-05-13T13:12:11.867Z,2.00
2019-05-13T13:14:44.177Z,1.60
2019-05-13T13:17:12.812Z,1.87
2019-05-13T13:19:41.736Z,2.03
2019-05-13T13:22:13.319Z,1.97
2019-05-13T13:24:50.542Z,2.10
2019-05-13T13:27:20.841Z,2.33
2019-05-13T13:29:43.280Z,2.33
2019-05-13T13:32:13.262Z,2.33
2019-05-13T13:34:44.104Z,2.43
2019-05-13T13:37:11.345Z,2.57
2019-05-13T13:39:43.195Z,2.70
2019-05-13T13:42:12.905Z,2.57
2019-05-13T13:44:42.898Z,2.20
2019-05-13T13:47:14.712Z,2.37
2019-05-13T13:49:43.590Z,2.40
2019-05-13T13:52:15.928Z,2.47
2019-05-13T13:54:44.135Z,2.07
2019-05-13T13:57:13.386Z,2.33
2019-05-13T14:00:14.179Z,2.20
2019-05-13T14:02:13.442Z,2.00
2019-05-13T14:04:42.938Z,2.00
2019-05-13T14:06:35.511Z,2.13
2019-05-13T14:07:34.778Z,2.20
2019-05-13T14:09:42.142Z,2.30
2019-05-13T14:12:11.359Z,2.80
2019-05-13T14:14:41.491Z,2.50
2019-05-13T14:17:11.343Z,2.37
2019-05-13T14:19:42.223Z,2.27
2019-05-13T14:22:12.607Z,2.23
2019-05-13T14:24:42.504Z,2.00
2019-05-13T14:27:12.024Z,1.60
2019-05-13T14:29:47.998Z,1.97
2019-05-13T14:32:11.014Z,1.83
2019-05-13T14:34:41.855Z,1.90
2019-05-13T14:37:11.715Z,1.73
2019-05-13T14:39:39.736Z,2.07
2019-05-13T14:42:08.164Z,1.90
2019-05-13T14:44:36.588Z,1.90
2019-05-13T14:47:05.099Z,2.07
2019-05-13T14:49:33.527Z,2.40
2019-05-13T14:52:02.022Z,2.00
2019-05-13T14:54:31.337Z,2.50
2019-05-13T14:57:02.294Z,1.70
2019-05-13T14:59:31.454Z,2.00
2019-05-13T15:02:01.372Z,2.20
2019-05-13T15:04:32.463Z,2.30
2019-05-13T15:07:00.209Z,2.23
2019-05-13T15:09:31.270Z,2.10
2019-05-13T15:12:01.754Z,1.90
2019-05-13T15:14:31.755Z,1.83
2019-05-13T15:17:05.820Z,2.03
2019-05-13T15:19:31.621Z,2.10
2019-05-13T15:21:59.646Z,2.00
2019-05-13T15:24:28.160Z,1.70
2019-05-13T15:26:56.600Z,2.00
2019-05-13T15:29:25.026Z,1.63
2019-05-13T15:31:53.439Z,1.60
2019-05-13T15:34:21.880Z,1.92
2019-05-13T15:36:50.983Z,2.30
2019-05-13T15:39:20.081Z,1.70
2019-05-13T15:41:48.506Z,1.90
2019-05-13T15:44:16.938Z,2.23
2019-05-13T15:46:45.499Z,1.40
2019-05-13T15:49:14.251Z,1.50
2019-05-13T15:51:42.751Z,1.47
2019-05-13T15:54:15.259Z,1.80
2019-05-13T15:56:41.660Z,1.57
2019-05-13T15:59:12.362Z,1.90
2019-05-13T16:01:41.480Z,2.17
2019-05-13T16:04:12.794Z,1.40
2019-05-13T16:06:41.783Z,1.30
2019-05-13T16:09:11.663Z,2.13
2019-05-13T16:11:41.430Z,1.90
2019-05-13T16:14:11.688Z,1.80
2019-05-13T16:16:41.668Z,1.90
2019-05-13T16:19:10.564Z,1.80
2019-05-13T16:21:41.375Z,1.77
2019-05-13T16:24:11.708Z,1.53
2019-05-13T16:26:39.394Z,1.40
2019-05-13T16:29:07.916Z,1.70
2019-05-13T16:31:36.342Z,1.43
2019-05-13T16:34:04.844Z,1.80
2019-05-13T16:36:33.302Z,1.60
2019-05-13T16:39:03.359Z,1.37
2019-05-13T16:41:31.931Z,1.73
2019-05-13T16:44:00.438Z,1.53
2019-05-13T16:46:28.843Z,1.53
2019-05-13T16:48:57.318Z,2.00
2019-05-13T16:51:25.754Z,1.53
2019-05-13T16:53:54.174Z,1.70
2019-05-13T16:56:27.710Z,2.07
2019-05-13T16:58:52.815Z,1.73
2019-05-13T17:01:21.988Z,1.73
2019-05-13T17:03:51.311Z,1.70
2019-05-13T17:06:21.699Z,1.50
2019-05-13T17:08:51.650Z,1.40
2019-05-13T17:11:20.246Z,1.90
2019-05-13T17:13:48.679Z,1.57
2019-05-13T17:16:17.084Z,1.60
2019-05-13T17:18:45.513Z,1.70
2019-05-13T17:21:13.959Z,1.40
2019-05-13T17:23:42.377Z,1.57
2019-05-13T17:26:11.589Z,1.30
2019-05-13T17:28:41.695Z,1.53
2019-05-13T17:31:11.563Z,1.50
2019-05-13T17:33:40.191Z,1.70
2019-05-13T17:36:08.635Z,1.30
2019-05-13T17:38:37.052Z,1.60
2019-05-13T17:41:05.530Z,1.17
2019-05-13T17:43:33.962Z,1.47
2019-05-13T17:46:04.402Z,1.60
2019-05-13T17:48:33.281Z,1.60
2019-05-13T17:51:01.952Z,1.60
2019-05-13T17:53:32.505Z,1.30
2019-05-13T17:56:02.405Z,1.30
2019-05-13T17:58:31.412Z,1.47
2019-05-13T18:01:01.600Z,1.30
2019-05-13T18:03:31.983Z,1.40
2019-05-13T18:06:02.524Z,1.47
2019-05-13T18:08:32.044Z,1.83
2019-05-13T18:11:02.279Z,1.60
2019-05-13T18:13:31.610Z,1.53
2019-05-13T18:16:02.402Z,1.17
2019-05-13T18:18:40.349Z,1.80
2019-05-13T18:21:01.449Z,1.57
2019-05-13T18:23:30.205Z,1.60
2019-05-13T18:25:58.702Z,1.53
2019-05-13T18:28:31.112Z,1.47
2019-05-13T18:30:57.267Z,1.47
2019-05-13T18:33:25.674Z,1.40
2019-05-13T18:35:54.111Z,1.13
2019-05-13T18:38:22.584Z,1.70
2019-05-13T18:40:52.576Z,1.67
2019-05-13T18:43:21.679Z,1.00
2019-05-13T18:45:52.281Z,1.50
2019-05-13T18:48:21.892Z,1.50
2019-05-13T18:50:52.383Z,1.70
2019-05-13T18:53:21.489Z,1.53
2019-05-13T18:55:52.447Z,1.27
2019-05-13T18:58:22.245Z,1.30
2019-05-13T19:00:52.315Z,1.30
2019-05-13T19:03:32.264Z,1.40
2019-05-13T19:06:01.147Z,1.33
2019-05-13T19:08:31.872Z,1.60
2019-05-13T19:11:01.199Z,1.90
2019-05-13T19:13:32.115Z,1.73
2019-05-13T19:16:02.340Z,1.70
2019-05-13T19:18:32.035Z,1.40
2019-05-13T19:21:01.966Z,1.20
2019-05-13T19:23:31.487Z,1.50
2019-05-13T19:26:01.887Z,1.20
2019-05-13T19:28:31.760Z,1.90
2019-05-13T19:31:02.228Z,1.50
2019-05-13T19:33:30.879Z,1.20
2019-05-13T19:36:01.432Z,1.60
2019-05-13T19:38:31.870Z,1.40
2019-05-13T19:41:02.159Z,1.67
2019-05-13T19:43:31.356Z,1.60
2019-05-13T19:46:01.549Z,1.40
2019-05-13T19:48:32.340Z,2.10
2019-05-13T19:51:01.603Z,1.90
2019-05-13T19:53:32.009Z,1.90
2019-05-13T19:56:01.422Z,2.20
2019-05-13T19:58:32.099Z,2.00
2019-05-13T20:01:00.247Z,1.87
2019-05-13T20:03:28.753Z,1.70
2019-05-13T20:05:57.165Z,1.80
2019-05-13T20:08:25.594Z,1.63
2019-05-13T20:10:54.053Z,1.50
2019-05-13T20:13:22.469Z,1.73
2019-05-13T20:15:51.865Z,1.43
2019-05-13T20:18:22.500Z,1.67
2019-05-13T20:20:51.916Z,1.20
2019-05-13T20:23:21.325Z,1.60
2019-05-13T20:25:52.269Z,1.40
2019-05-13T20:28:21.887Z,1.80
2019-05-13T20:30:51.279Z,1.87
2019-05-13T20:33:22.023Z,1.40
2019-05-13T20:35:49.982Z,1.57
2019-05-13T20:38:18.413Z,1.10
2019-05-13T20:40:46.827Z,1.73
2019-05-13T20:43:15.235Z,1.40
2019-05-13T20:45:43.662Z,1.67
2019-05-13T20:48:12.140Z,1.53
2019-05-13T20:50:41.276Z,1.50
2019-05-13T20:53:11.541Z,1.60
2019-05-13T20:55:41.720Z,1.10
2019-05-13T20:58:12.735Z,1.30
2019-05-13T21:00:42.176Z,1.33
2019-05-13T21:03:11.785Z,1.30
2019-05-13T21:05:41.700Z,1.30
2019-05-13T21:08:10.240Z,1.63
2019-05-13T21:10:38.659Z,1.50
2019-05-13T21:13:07.087Z,1.70
2019-05-13T21:15:35.622Z,1.30
2019-05-13T21:18:04.055Z,1.40
2019-05-13T21:20:32.458Z,1.67
2019-05-13T21:23:02.424Z,1.50
2019-05-13T21:25:31.121Z,1.50
2019-05-13T21:28:01.969Z,1.67
2019-05-13T21:30:29.905Z,1.67
2019-05-13T21:32:58.334Z,1.40
2019-05-13T21:35:26.757Z,1.70
2019-05-13T21:37:55.193Z,1.40
2019-05-13T21:40:23.593Z,1.60
2019-05-13T21:42:52.680Z,1.70
2019-05-13T21:45:21.330Z,1.40
2019-05-13T21:47:49.753Z,1.40
2019-05-13T21:50:32.668Z,1.90
2019-05-13T21:52:48.376Z,1.80
2019-05-13T21:55:16.855Z,1.60
2019-05-13T21:57:45.286Z,1.50
2019-05-13T22:00:16.229Z,1.50
2019-05-13T22:02:45.731Z,1.60
2019-05-13T22:05:14.476Z,1.50
2019-05-13T22:07:43.829Z,1.13
2019-05-13T22:10:12.391Z,1.63
2019-05-13T22:12:41.409Z,1.37
2019-05-13T22:15:10.415Z,1.10
2019-05-13T22:17:38.854Z,1.83
2019-05-13T22:20:07.517Z,1.30
2019-05-13T22:22:35.956Z,1.27
2019-05-13T22:25:07.199Z,1.07
2019-05-13T22:27:36.601Z,1.73
2019-05-13T22:30:08.224Z,1.37
2019-05-13T22:32:36.654Z,1.30
2019-05-13T22:35:05.797Z,1.27
2019-05-13T22:37:34.221Z,1.40
2019-05-13T22:40:04.083Z,1.27
2019-05-13T22:42:32.804Z,1.60
2019-05-13T22:45:02.880Z,1.20
2019-05-13T22:47:31.645Z,1.00
2019-05-13T22:50:01.994Z,1.47
2019-05-13T22:52:31.257Z,1.00
2019-05-13T22:55:02.274Z,1.20
2019-05-13T22:57:31.300Z,1.17
2019-05-13T22:59:59.992Z,1.30
2019-05-13T23:02:28.586Z,1.70
2019-05-13T23:04:57.045Z,1.50
2019-05-13T23:07:25.454Z,1.60
2019-05-13T23:09:53.883Z,1.50
2019-05-13T23:12:22.366Z,1.53
2019-05-13T23:14:52.038Z,1.30
2019-05-13T23:17:21.561Z,1.43
2019-05-13T23:19:52.274Z,1.50
2019-05-13T23:22:20.406Z,1.40
2019-05-13T23:24:48.814Z,1.50
2019-05-13T23:27:17.232Z,1.57
2019-05-13T23:29:45.640Z,1.40
2019-05-13T23:32:14.062Z,1.70
2019-05-13T23:34:42.528Z,1.70
2019-05-13T23:37:11.438Z,1.70
2019-05-13T23:39:41.667Z,1.90
2019-05-13T23:42:12.190Z,1.97
2019-05-13T23:44:41.415Z,1.70
2019-05-13T23:47:11.454Z,1.70
2019-05-13T23:49:42.211Z,1.80
2019-05-13T23:52:11.705Z,1.77
2019-05-13T23:54:42.533Z,1.80
2019-05-13T23:57:11.698Z,1.87
2019-05-13T23:59:41.974Z,2.00
